Time;durP1;ratioP1;P1;durP2;ratioP2;P2;SDS_P1;SDS_P2;PMS_P1;PMS_P2;Temp;Humidity;BMP_temperature;BMP_pressure;BME280_temperature;BME280_humidity;BME280_pressure;Samples;Min_cycle;Max_cycle;Signal;HPM_P1;HPM_P2
2024/04/15 05:02:21;;;;;;;11.40;6.83;;;;;;;;;;5419280;21;20636;-78
2024/04/15 05:04:47;;;;;;;13.03;5.10;;;;;;;;;;5290297;27;20446;-78
2024/04/15 05:07:13;;;;;;;12.63;4.97;;;;;;;;;;5290263;27;20498;-78
2024/04/15 05:09:42;;;;;;;9.00;3.90;;;;;;;;;;5285392;27;20531;-78
2024/04/15 05:12:08;;;;;;;12.67;5.40;;;;;;;;;;5261115;27;20463;-78
2024/04/15 05:14:34;;;;;;;8.57;4.77;;;;;;;;;;5256578;27;20531;-79
2024/04/15 05:17:00;;;;;;;7.13;4.00;;;;;;;;;;5255728;27;20526;-79
2024/04/15 05:19:26;;;;;;;8.03;3.40;;;;;;;;;;5243101;27;20674;-78
2024/04/15 05:21:52;;;;;;;10.67;4.17;;;;;;;;;;5249159;27;20535;-80
2024/04/15 05:24:18;;;;;;;9.80;3.40;;;;;;;;;;5234567;27;20469;-78
2024/04/15 05:26:44;;;;;;;7.17;4.00;;;;;;;;;;5241041;27;20480;-79
2024/04/15 05:29:10;;;;;;;6.17;3.80;;;;;;;;;;5221081;27;20492;-79
2024/04/15 05:31:36;;;;;;;5.60;3.53;;;;;;;;;;5233293;27;20528;-77
2024/04/15 05:34:03;;;;;;;7.30;3.20;;;;;;;;;;5231460;27;20544;-80
2024/04/15 05:36:29;;;;;;;6.40;2.80;;;;;;;;;;5244842;27;20556;-77
2024/04/15 05:38:55;;;;;;;13.57;3.80;;;;;;;;;;5247359;27;20935;-77
2024/04/15 05:41:21;;;;;;;13.73;3.73;;;;;;;;;;5248341;27;20522;-78
2024/04/15 05:43:46;;;;;;;7.67;3.03;;;;;;;;;;5253893;27;20464;-79
2024/04/15 05:46:13;;;;;;;8.30;2.87;;;;;;;;;;5251776;27;20511;-79
2024/04/15 05:48:38;;;;;;;6.30;2.63;;;;;;;;;;5254485;27;20455;-78
2024/04/15 05:51:04;;;;;;;10.63;3.10;;;;;;;;;;5256440;27;20471;-79
2024/04/15 05:53:30;;;;;;;4.77;3.13;;;;;;;;;;5254140;27;20453;-79
2024/04/15 05:55:57;;;;;;;5.57;2.53;;;;;;;;;;5255328;27;20452;-79
2024/04/15 05:58:23;;;;;;;3.63;2.07;;;;;;;;;;5255610;27;20439;-79
2024/04/15 06:00:49;;;;;;;5.37;2.40;;;;;;;;;;5255802;27;20989;-79
2024/04/15 06:03:15;;;;;;;11.20;2.60;;;;;;;;;;5260172;27;20456;-79
2024/04/15 06:05:41;;;;;;;4.30;2.20;;;;;;;;;;5263558;27;20451;-79
2024/04/15 06:08:07;;;;;;;5.27;2.27;;;;;;;;;;5254192;27;20447;-79
2024/04/15 06:10:33;;;;;;;10.70;2.50;;;;;;;;;;5253300;27;20468;-79
2024/04/15 06:12:59;;;;;;;6.50;2.17;;;;;;;;;;5252077;27;20456;-78
2024/04/15 06:15:25;;;;;;;3.53;2.30;;;;;;;;;;5251432;27;20856;-79
2024/04/15 06:17:50;;;;;;;4.97;2.23;;;;;;;;;;5253365;27;20440;-78
2024/04/15 06:20:16;;;;;;;4.80;2.70;;;;;;;;;;5252417;27;20549;-78
2024/04/15 06:22:42;;;;;;;5.27;1.70;;;;;;;;;;5252103;27;20863;-81
2024/04/15 06:25:08;;;;;;;3.30;1.97;;;;;;;;;;5249122;27;20452;-78
2024/04/15 06:27:34;;;;;;;4.67;2.30;;;;;;;;;;5247954;27;20501;-78
2024/04/15 06:30:04;;;;;;;7.10;2.30;;;;;;;;;;5251017;27;21050;-78
2024/04/15 06:32:30;;;;;;;9.30;2.90;;;;;;;;;;5256187;27;20983;-79
2024/04/15 06:34:56;;;;;;;4.73;2.37;;;;;;;;;;5252771;27;20456;-79
2024/04/15 06:37:22;;;;;;;3.00;1.97;;;;;;;;;;5252962;27;20505;-79
2024/04/15 06:39:47;;;;;;;6.90;2.47;;;;;;;;;;5253198;27;20579;-78
2024/04/15 06:42:13;;;;;;;6.80;2.30;;;;;;;;;;5255705;27;20807;-78
2024/04/15 06:44:39;;;;;;;7.03;2.10;;;;;;;;;;5254181;27;20464;-79
2024/04/15 06:47:05;;;;;;;4.63;2.23;;;;;;;;;;5252892;27;20452;-79
2024/04/15 06:49:32;;;;;;;6.10;2.23;;;;;;;;;;5254306;27;20495;-79
2024/04/15 06:51:58;;;;;;;7.83;2.80;;;;;;;;;;5252496;27;20487;-80
2024/04/15 06:54:23;;;;;;;7.40;2.47;;;;;;;;;;5245399;27;20467;-78
2024/04/15 06:56:49;;;;;;;5.30;2.37;;;;;;;;;;5250331;27;20512;-80
2024/04/15 06:59:15;;;;;;;5.10;2.40;;;;;;;;;;5251628;27;20545;-79
2024/04/15 07:01:41;;;;;;;7.10;2.80;;;;;;;;;;5251875;27;20467;-79
2024/04/15 07:04:07;;;;;;;5.17;2.50;;;;;;;;;;5252838;27;20987;-79
2024/04/15 07:06:33;;;;;;;4.30;2.10;;;;;;;;;;5250630;27;20459;-79
2024/04/15 07:08:59;;;;;;;7.70;2.57;;;;;;;;;;5251566;27;20539;-79
2024/04/15 07:11:25;;;;;;;7.27;3.00;;;;;;;;;;5251851;27;21006;-79
2024/04/15 07:13:51;;;;;;;7.73;2.73;;;;;;;;;;5254064;27;20537;-79
2024/04/15 07:16:17;;;;;;;4.87;2.23;;;;;;;;;;5257846;27;20495;-78
2024/04/15 07:18:43;;;;;;;5.13;2.87;;;;;;;;;;5268954;27;20540;-78
2024/04/15 07:21:09;;;;;;;7.20;2.60;;;;;;;;;;5266090;27;20553;-77
2024/04/15 07:23:35;;;;;;;5.33;2.30;;;;;;;;;;5249261;27;20456;-79
2024/04/15 07:26:01;;;;;;;5.40;2.50;;;;;;;;;;5253813;27;20503;-79
2024/04/15 07:28:28;;;;;;;5.10;2.47;;;;;;;;;;5255485;27;20503;-78
2024/04/15 07:31:00;;;;;;;9.00;3.37;;;;;;;;;;5255360;27;20560;-79
2024/04/15 07:33:26;;;;;;;8.60;2.77;;;;;;;;;;5256181;27;20451;-79
2024/04/15 07:35:53;;;;;;;7.90;2.80;;;;;;;;;;5257300;27;20572;-79
2024/04/15 07:38:19;;;;;;;7.27;2.97;;;;;;;;;;5259841;27;20451;-78
2024/04/15 07:40:45;;;;;;;4.00;2.90;;;;;;;;;;5269084;27;20548;-77
2024/04/15 07:43:11;;;;;;;6.10;2.37;;;;;;;;;;5269092;27;20691;-78
2024/04/15 07:45:37;;;;;;;7.30;3.00;;;;;;;;;;5269066;27;20520;-78
2024/04/15 07:48:03;;;;;;;9.30;3.33;;;;;;;;;;5268696;27;20443;-78
2024/04/15 07:50:29;;;;;;;5.47;2.90;;;;;;;;;;5260401;27;20565;-79
2024/04/15 07:52:55;;;;;;;12.20;4.23;;;;;;;;;;5264557;27;20451;-78
2024/04/15 07:55:21;;;;;;;10.43;3.67;;;;;;;;;;5260878;27;20444;-79
2024/04/15 07:57:48;;;;;;;5.57;3.40;;;;;;;;;;5254216;27;20459;-79
2024/04/15 08:00:14;;;;;;;7.93;4.40;;;;;;;;;;5253722;27;20982;-79
2024/04/15 08:02:39;;;;;;;9.37;3.63;;;;;;;;;;5252776;27;20847;-78
2024/04/15 08:05:06;;;;;;;11.40;3.80;;;;;;;;;;5250308;27;20452;-79
2024/04/15 08:07:31;;;;;;;7.70;3.53;;;;;;;;;;5253215;27;20463;-79
2024/04/15 08:10:00;;;;;;;7.00;3.60;;;;;;;;;;5254134;27;20455;-79
2024/04/15 08:12:26;;;;;;;5.13;3.60;;;;;;;;;;5254179;27;20480;-79
2024/04/15 08:14:53;;;;;;;6.70;3.60;;;;;;;;;;5255070;27;20966;-79
2024/04/15 08:17:19;;;;;;;9.40;4.30;;;;;;;;;;5254612;27;20574;-79
2024/04/15 08:19:45;;;;;;;9.40;4.20;;;;;;;;;;5254847;27;20527;-79
2024/04/15 08:22:11;;;;;;;11.47;4.17;;;;;;;;;;5253814;27;20531;-79
2024/04/15 08:24:37;;;;;;;7.97;4.37;;;;;;;;;;5253577;27;20854;-79
2024/04/15 08:27:03;;;;;;;10.70;4.90;;;;;;;;;;5253707;27;20508;-79
2024/04/15 08:29:29;;;;;;;9.87;4.27;;;;;;;;;;5255397;27;20524;-79
2024/04/15 08:31:55;;;;;;;11.43;4.53;;;;;;;;;;5253049;27;20479;-78
2024/04/15 08:34:21;;;;;;;21.60;4.77;;;;;;;;;;5253419;27;20507;-78
2024/04/15 08:36:47;;;;;;;12.60;4.03;;;;;;;;;;5255693;27;20452;-78
2024/04/15 08:39:13;;;;;;;8.03;4.67;;;;;;;;;;5254849;27;20601;-78
2024/04/15 08:41:48;;;;;;;12.13;4.47;;;;;;;;;;5254905;27;20530;-78
2024/04/15 08:44:17;;;;;;;6.97;4.20;;;;;;;;;;5250586;27;20801;-78
2024/04/15 08:46:44;;;;;;;5.33;3.60;;;;;;;;;;5250407;27;20515;-78
2024/04/15 08:49:10;;;;;;;9.73;4.73;;;;;;;;;;5250311;27;20527;-78
2024/04/15 08:51:36;;;;;;;9.63;4.60;;;;;;;;;;5258497;27;20568;-79
2024/04/15 08:54:02;;;;;;;11.00;5.10;;;;;;;;;;5256434;27;20506;-79
2024/04/15 08:56:30;;;;;;;9.23;4.90;;;;;;;;;;5253126;27;20455;-78
2024/04/15 08:58:56;;;;;;;10.43;4.40;;;;;;;;;;5252561;27;21011;-78
2024/04/15 09:01:22;;;;;;;19.23;4.40;;;;;;;;;;5252276;27;20535;-79
2024/04/15 09:03:49;;;;;;;8.90;4.90;;;;;;;;;;5252976;27;20455;-79
2024/04/15 09:06:15;;;;;;;8.33;4.80;;;;;;;;;;5249640;27;20472;-79
2024/04/15 09:08:43;;;;;;;11.10;4.90;;;;;;;;;;5260178;27;20500;-79
2024/04/15 09:11:09;;;;;;;14.80;4.63;;;;;;;;;;5255092;27;20459;-78
2024/04/15 09:13:35;;;;;;;7.67;4.60;;;;;;;;;;5253031;27;20499;-78
2024/04/15 09:16:01;;;;;;;15.53;4.57;;;;;;;;;;5258718;27;20459;-78
2024/04/15 09:18:27;;;;;;;12.37;4.40;;;;;;;;;;5253358;27;20800;-79
2024/04/15 09:20:54;;;;;;;8.07;5.10;;;;;;;;;;5253442;27;20476;-79
2024/04/15 09:23:20;;;;;;;16.53;4.80;;;;;;;;;;5251079;27;20581;-79
2024/04/15 09:25:47;;;;;;;12.63;5.20;;;;;;;;;;5252227;27;20501;-78
2024/04/15 09:28:13;;;;;;;11.53;5.17;;;;;;;;;;5253080;27;20834;-79
2024/04/15 09:30:39;;;;;;;14.40;5.60;;;;;;;;;;5252428;27;20519;-78
2024/04/15 09:33:09;;;;;;;8.87;4.67;;;;;;;;;;5251341;27;20459;-79
2024/04/15 09:35:38;;;;;;;12.00;4.60;;;;;;;;;;5258101;27;20459;-79
2024/04/15 09:38:04;;;;;;;9.60;3.87;;;;;;;;;;5255446;27;20896;-79
2024/04/15 09:40:31;;;;;;;8.70;4.30;;;;;;;;;;5252818;27;20527;-80
2024/04/15 09:42:57;;;;;;;7.70;4.10;;;;;;;;;;5250531;27;20510;-79
2024/04/15 09:45:24;;;;;;;8.70;3.40;;;;;;;;;;5253388;27;20875;-80
2024/04/15 09:47:51;;;;;;;7.77;3.40;;;;;;;;;;5253102;27;21023;-79
2024/04/15 09:50:21;;;;;;;10.53;4.20;;;;;;;;;;5253701;27;20459;-79
2024/04/15 09:52:49;;;;;;;7.70;3.87;;;;;;;;;;5253892;27;20728;-80
2024/04/15 09:55:20;;;;;;;8.40;3.70;;;;;;;;;;5256316;27;20455;-79
2024/04/15 09:57:47;;;;;;;13.53;4.57;;;;;;;;;;5262404;27;20530;-80
2024/04/15 10:00:14;;;;;;;5.73;3.73;;;;;;;;;;5252156;27;20783;-79
2024/04/15 10:02:49;;;;;;;9.60;4.80;;;;;;;;;;5251466;27;20872;-79
2024/04/15 10:05:25;;;;;;;6.50;3.67;;;;;;;;;;5255485;27;20447;-80
2024/04/15 10:07:56;;;;;;;11.00;3.97;;;;;;;;;;5253950;27;20447;-80
2024/04/15 10:10:23;;;;;;;6.37;3.87;;;;;;;;;;5257241;27;20463;-79
2024/04/15 10:12:53;;;;;;;13.23;5.70;;;;;;;;;;5250884;27;20511;-80
2024/04/15 10:15:20;;;;;;;5.10;3.53;;;;;;;;;;5251001;27;20452;-79
2024/04/15 10:17:56;;;;;;;8.40;3.60;;;;;;;;;;5255500;27;20443;-78
2024/04/15 10:20:27;;;;;;;15.53;4.30;;;;;;;;;;5265223;27;20440;-79
2024/04/15 10:22:57;;;;;;;8.43;3.70;;;;;;;;;;5266331;27;20435;-78
2024/04/15 10:25:23;;;;;;;7.70;4.03;;;;;;;;;;5266212;27;20488;-78
2024/04/15 10:27:49;;;;;;;6.57;3.77;;;;;;;;;;5265570;27;20447;-78
2024/04/15 10:30:18;;;;;;;6.63;3.20;;;;;;;;;;5266328;27;20439;-78
2024/04/15 10:32:45;;;;;;;3.93;2.70;;;;;;;;;;5262538;27;20444;-80
2024/04/15 10:35:25;;;;;;;10.00;3.20;;;;;;;;;;5262387;27;20444;-79
2024/04/15 10:37:58;;;;;;;7.90;3.10;;;;;;;;;;5259755;27;20581;-79
2024/04/15 10:40:28;;;;;;;6.33;3.20;;;;;;;;;;5253970;27;20979;-79
2024/04/15 10:42:54;;;;;;;9.13;2.50;;;;;;;;;;5253254;27;20565;-79
2024/04/15 10:45:21;;;;;;;6.80;3.00;;;;;;;;;;5253293;27;20456;-79
2024/04/15 10:47:47;;;;;;;12.80;3.73;;;;;;;;;;5261138;27;20447;-79
2024/04/15 10:50:13;;;;;;;6.03;3.00;;;;;;;;;;5258878;27;20455;-79
2024/04/15 10:52:39;;;;;;;3.53;2.30;;;;;;;;;;5253757;27;20888;-78
2024/04/15 10:55:05;;;;;;;6.80;2.60;;;;;;;;;;5254756;27;20460;-79
2024/04/15 10:57:31;;;;;;;8.37;2.60;;;;;;;;;;5254675;27;20467;-79
2024/04/15 10:59:59;;;;;;;5.30;2.60;;;;;;;;;;5255636;27;20443;-80
2024/04/15 11:02:25;;;;;;;8.17;2.10;;;;;;;;;;5255290;27;20584;-80
2024/04/15 11:04:51;;;;;;;6.43;2.53;;;;;;;;;;5254083;27;20467;-79
2024/04/15 11:07:17;;;;;;;6.67;2.40;;;;;;;;;;5255200;27;20443;-80
2024/04/15 11:09:44;;;;;;;4.90;2.23;;;;;;;;;;5255798;27;20539;-80
2024/04/15 11:12:10;;;;;;;5.23;2.57;;;;;;;;;;5255240;27;20514;-79
2024/04/15 11:14:36;;;;;;;5.10;3.00;;;;;;;;;;5262790;27;20567;-80
2024/04/15 11:17:04;;;;;;;6.23;2.80;;;;;;;;;;5265877;27;20508;-80
2024/04/15 11:19:30;;;;;;;3.50;2.13;;;;;;;;;;5266709;27;20455;-80
2024/04/15 11:22:14;;;;;;;5.07;2.40;;;;;;;;;;5267163;27;20468;-80
2024/04/15 11:24:40;;;;;;;6.50;2.20;;;;;;;;;;5261729;27;20503;-80
2024/04/15 11:27:09;;;;;;;4.80;2.40;;;;;;;;;;5254330;27;20439;-80
2024/04/15 11:29:35;;;;;;;4.93;2.43;;;;;;;;;;5258051;27;21029;-80
2024/04/15 11:32:01;;;;;;;6.93;2.90;;;;;;;;;;5260755;27;20471;-80
2024/04/15 11:34:27;;;;;;;6.07;2.70;;;;;;;;;;5250204;27;20547;-80
2024/04/15 11:36:53;;;;;;;5.40;2.53;;;;;;;;;;5250554;27;20565;-80
2024/04/15 11:39:19;;;;;;;6.37;2.70;;;;;;;;;;5256381;27;20455;-80
2024/04/15 11:41:45;;;;;;;7.03;2.80;;;;;;;;;;5255602;27;20565;-80
2024/04/15 11:44:12;;;;;;;4.50;2.47;;;;;;;;;;5256074;27;20576;-79
2024/04/15 11:46:39;;;;;;;11.63;2.90;;;;;;;;;;5246233;27;20563;-79
2024/04/15 11:49:05;;;;;;;7.70;2.70;;;;;;;;;;5246921;27;20451;-79
2024/04/15 11:51:32;;;;;;;8.67;3.17;;;;;;;;;;5246139;27;20591;-79
2024/04/15 11:53:58;;;;;;;5.33;3.00;;;;;;;;;;5246814;27;20448;-79
2024/04/15 11:56:23;;;;;;;7.57;3.00;;;;;;;;;;5246015;27;20455;-79
2024/04/15 11:58:49;;;;;;;13.33;3.20;;;;;;;;;;5245733;27;20575;-79
2024/04/15 12:01:16;;;;;;;7.37;2.87;;;;;;;;;;5246802;27;20479;-79
2024/04/15 12:03:43;;;;;;;15.23;3.33;;;;;;;;;;5246853;27;20896;-79
2024/04/15 12:06:10;;;;;;;9.53;2.97;;;;;;;;;;5245516;27;20911;-78
2024/04/15 12:08:37;;;;;;;8.20;3.07;;;;;;;;;;5246605;27;20452;-78
2024/04/15 12:11:06;;;;;;;6.67;3.00;;;;;;;;;;5244323;27;20846;-78
2024/04/15 12:13:31;;;;;;;5.73;2.53;;;;;;;;;;5245430;27;20447;-78
2024/04/15 12:15:57;;;;;;;6.80;2.80;;;;;;;;;;5245093;27;21039;-78
2024/04/15 12:18:23;;;;;;;6.17;3.20;;;;;;;;;;5245396;27;20816;-79
2024/04/15 12:20:49;;;;;;;6.50;3.20;;;;;;;;;;5246369;27;20595;-79
2024/04/15 12:23:16;;;;;;;8.93;3.70;;;;;;;;;;5247303;27;20501;-79
2024/04/15 12:25:42;;;;;;;6.17;2.80;;;;;;;;;;5247406;27;20853;-79
2024/04/15 12:28:08;;;;;;;4.53;2.60;;;;;;;;;;5245102;27;20504;-79
2024/04/15 12:30:33;;;;;;;10.13;3.80;;;;;;;;;;5244872;27;20810;-78
2024/04/15 12:33:00;;;;;;;5.87;3.30;;;;;;;;;;5245051;27;20520;-79
2024/04/15 12:35:26;;;;;;;8.83;3.43;;;;;;;;;;5245313;27;20874;-79
2024/04/15 12:37:52;;;;;;;10.73;3.37;;;;;;;;;;5245599;27;20447;-79
2024/04/15 12:40:18;;;;;;;7.10;3.23;;;;;;;;;;5245588;27;20568;-79
2024/04/15 12:42:44;;;;;;;9.20;3.07;;;;;;;;;;5245663;27;20444;-79
2024/04/15 12:45:10;;;;;;;7.20;3.10;;;;;;;;;;5245050;27;20860;-79
2024/04/15 12:47:36;;;;;;;8.33;3.10;;;;;;;;;;5244516;27;20503;-78
2024/04/15 12:50:03;;;;;;;7.23;3.10;;;;;;;;;;5247282;27;20500;-79
2024/04/15 12:52:30;;;;;;;14.57;4.20;;;;;;;;;;5247600;27;20860;-79
2024/04/15 12:54:57;;;;;;;11.10;4.37;;;;;;;;;;5246917;27;20508;-79
2024/04/15 12:57:24;;;;;;;10.70;3.40;;;;;;;;;;5245432;27;20501;-79
2024/04/15 12:59:50;;;;;;;8.53;3.33;;;;;;;;;;5250347;27;20448;-80
2024/04/15 13:02:16;;;;;;;13.27;3.90;;;;;;;;;;5247895;27;20528;-79
2024/04/15 13:04:42;;;;;;;6.67;3.33;;;;;;;;;;5246027;27;20455;-79
2024/04/15 13:07:08;;;;;;;5.90;3.40;;;;;;;;;;5246541;27;20541;-80
2024/04/15 13:09:34;;;;;;;12.40;3.30;;;;;;;;;;5246176;27;20586;-79
2024/04/15 13:12:00;;;;;;;6.80;3.20;;;;;;;;;;5243770;27;20467;-79
2024/04/15 13:14:26;;;;;;;8.30;3.03;;;;;;;;;;5246312;27;21080;-79
2024/04/15 13:16:52;;;;;;;19.43;3.57;;;;;;;;;;5246487;27;20806;-79
2024/04/15 13:19:18;;;;;;;9.47;3.60;;;;;;;;;;5252053;27;20504;-80
2024/04/15 13:21:44;;;;;;;6.70;2.90;;;;;;;;;;5250652;27;20467;-79
2024/04/15 13:24:11;;;;;;;6.00;3.57;;;;;;;;;;5247583;27;20559;-79
2024/04/15 13:26:37;;;;;;;5.40;2.53;;;;;;;;;;5245043;27;20492;-79
2024/04/15 13:29:03;;;;;;;7.07;2.53;;;;;;;;;;5244568;27;20444;-79
2024/04/15 13:31:29;;;;;;;9.40;2.90;;;;;;;;;;5245655;27;20550;-79
2024/04/15 13:33:55;;;;;;;7.87;2.80;;;;;;;;;;5245737;27;20594;-79
2024/04/15 13:36:21;;;;;;;12.47;3.70;;;;;;;;;;5244096;27;20459;-79
2024/04/15 13:38:47;;;;;;;9.10;3.03;;;;;;;;;;5244875;27;20456;-79
2024/04/15 13:41:13;;;;;;;8.87;3.37;;;;;;;;;;5244309;27;20512;-80
2024/04/15 13:43:39;;;;;;;9.47;2.97;;;;;;;;;;5245326;27;20451;-80
2024/04/15 13:46:05;;;;;;;11.10;2.57;;;;;;;;;;5244878;27;20527;-79
2024/04/15 13:48:31;;;;;;;7.30;2.63;;;;;;;;;;5245966;27;20983;-79
2024/04/15 13:50:57;;;;;;;10.73;2.97;;;;;;;;;;5247520;27;20619;-79
2024/04/15 13:53:23;;;;;;;5.53;2.70;;;;;;;;;;5244030;27;20448;-79
2024/04/15 13:55:49;;;;;;;7.27;2.70;;;;;;;;;;5244258;27;20562;-79
2024/04/15 13:58:16;;;;;;;9.80;2.80;;;;;;;;;;5243777;27;20461;-79
2024/04/15 14:00:43;;;;;;;4.47;3.07;;;;;;;;;;5245747;27;20475;-79
2024/04/15 14:03:09;;;;;;;6.63;2.80;;;;;;;;;;5246559;27;20451;-79
2024/04/15 14:05:35;;;;;;;9.50;3.40;;;;;;;;;;5245628;27;20455;-78
2024/04/15 14:08:01;;;;;;;5.10;2.67;;;;;;;;;;5244436;27;20516;-79
2024/04/15 14:10:27;;;;;;;6.00;2.30;;;;;;;;;;5245059;27;21036;-79
2024/04/15 14:12:53;;;;;;;12.43;2.80;;;;;;;;;;5245278;27;20460;-79
2024/04/15 14:15:19;;;;;;;10.13;3.13;;;;;;;;;;5244084;27;20455;-78
2024/04/15 14:17:46;;;;;;;11.10;4.70;;;;;;;;;;5243501;27;20451;-78
2024/04/15 14:20:12;;;;;;;7.13;2.83;;;;;;;;;;5243625;27;20467;-79
2024/04/15 14:22:38;;;;;;;10.80;3.33;;;;;;;;;;5245042;27;20467;-78
2024/04/15 14:25:04;;;;;;;15.23;4.63;;;;;;;;;;5245932;27;20928;-78
2024/04/15 14:27:30;;;;;;;8.00;2.87;;;;;;;;;;5247521;27;20468;-79
2024/04/15 14:29:57;;;;;;;12.50;2.80;;;;;;;;;;5248646;27;20544;-79
2024/04/15 14:32:23;;;;;;;11.40;2.33;;;;;;;;;;5247041;27;20587;-79
2024/04/15 14:34:49;;;;;;;5.20;2.60;;;;;;;;;;5243627;27;20501;-78
2024/04/15 14:37:15;;;;;;;9.70;3.00;;;;;;;;;;5242078;27;20475;-78
2024/04/15 14:39:41;;;;;;;6.03;2.40;;;;;;;;;;5244803;27;20459;-79
2024/04/15 14:42:08;;;;;;;7.90;2.07;;;;;;;;;;5245354;27;20476;-79
2024/04/15 14:44:34;;;;;;;11.73;2.57;;;;;;;;;;5244239;27;20444;-77
2024/04/15 14:47:00;;;;;;;8.50;2.40;;;;;;;;;;5244151;27;20547;-79
2024/04/15 14:49:26;;;;;;;5.07;1.97;;;;;;;;;;5243251;27;20471;-78
2024/04/15 14:51:52;;;;;;;9.43;1.97;;;;;;;;;;5242913;27;20524;-77
2024/04/15 14:54:18;;;;;;;8.47;2.70;;;;;;;;;;5242931;27;20507;-78
2024/04/15 14:56:44;;;;;;;3.27;2.13;;;;;;;;;;5242523;27;20468;-78
2024/04/15 14:59:10;;;;;;;10.60;2.30;;;;;;;;;;5242385;27;20448;-79
2024/04/15 15:01:36;;;;;;;7.17;2.40;;;;;;;;;;5241980;27;20527;-78
2024/04/15 15:04:02;;;;;;;7.73;2.60;;;;;;;;;;5242967;27;20846;-78
2024/04/15 15:06:28;;;;;;;2.40;1.83;;;;;;;;;;5242157;27;20475;-78
2024/04/15 15:08:56;;;;;;;2.93;1.63;;;;;;;;;;5245068;27;20467;-79
2024/04/15 15:11:22;;;;;;;2.73;1.77;;;;;;;;;;5242633;27;20471;-78
2024/04/15 15:13:48;;;;;;;7.53;1.90;;;;;;;;;;5242332;27;20464;-79
2024/04/15 15:16:14;;;;;;;5.17;2.10;;;;;;;;;;5242620;27;20591;-79
2024/04/15 15:18:42;;;;;;;6.13;2.40;;;;;;;;;;5243518;27;20463;-81
2024/04/15 15:21:09;;;;;;;4.47;2.30;;;;;;;;;;5245827;27;20483;-80
2024/04/15 15:23:35;;;;;;;2.73;1.60;;;;;;;;;;5243438;27;20503;-80
2024/04/15 15:26:01;;;;;;;6.13;1.83;;;;;;;;;;5242524;27;21054;-79
2024/04/15 15:28:27;;;;;;;3.43;2.10;;;;;;;;;;5242129;27;20516;-78
2024/04/15 15:30:53;;;;;;;2.97;1.97;;;;;;;;;;5240335;27;20487;-79
2024/04/15 15:33:19;;;;;;;5.67;2.10;;;;;;;;;;5243805;27;20463;-79
2024/04/15 15:35:47;;;;;;;6.20;1.90;;;;;;;;;;5247560;27;20451;-78
2024/04/15 15:38:16;;;;;;;5.70;1.90;;;;;;;;;;5246991;27;20591;-79
2024/04/15 15:40:42;;;;;;;6.40;2.07;;;;;;;;;;5250224;27;20533;-77
2024/04/15 15:43:08;;;;;;;4.27;1.90;;;;;;;;;;5252637;27;20451;-78
2024/04/15 15:45:34;;;;;;;2.73;1.97;;;;;;;;;;5222296;27;20573;-79
2024/04/15 15:48:00;;;;;;;4.77;1.80;;;;;;;;;;5230069;27;20520;-80
2024/04/15 15:50:26;;;;;;;5.50;1.90;;;;;;;;;;5232360;27;20594;-78
2024/04/15 15:52:52;;;;;;;2.93;1.73;;;;;;;;;;5239607;27;20484;-78
2024/04/15 15:55:19;;;;;;;7.57;1.90;;;;;;;;;;5239736;27;20524;-79
2024/04/15 15:57:45;;;;;;;6.07;2.00;;;;;;;;;;5254504;27;20452;-80
2024/04/15 16:00:11;;;;;;;4.53;1.70;;;;;;;;;;5285493;27;20518;-79
2024/04/15 16:02:37;;;;;;;5.70;1.97;;;;;;;;;;5288022;27;20551;-78
2024/04/15 16:05:03;;;;;;;4.23;1.80;;;;;;;;;;5288512;27;20710;-79
2024/04/15 16:07:29;;;;;;;3.97;2.10;;;;;;;;;;5259451;27;20463;-80
2024/04/15 16:09:55;;;;;;;6.03;1.83;;;;;;;;;;5252396;27;20483;-78
2024/04/15 16:12:21;;;;;;;10.00;2.13;;;;;;;;;;5257841;27;20520;-81
2024/04/15 16:14:47;;;;;;;8.60;2.60;;;;;;;;;;5260556;27;20669;-80
2024/04/15 16:17:13;;;;;;;5.70;2.07;;;;;;;;;;5258361;27;20529;-78
2024/04/15 16:19:39;;;;;;;7.97;1.73;;;;;;;;;;5242577;27;20558;-82
2024/04/15 16:22:05;;;;;;;9.87;2.60;;;;;;;;;;5258740;27;21062;-83
2024/04/15 16:24:31;;;;;;;6.33;2.50;;;;;;;;;;5244234;27;20469;-81
2024/04/15 16:27:00;;;;;;;8.23;2.43;;;;;;;;;;5219734;27;20450;-82
2024/04/15 16:29:26;;;;;;;9.67;2.10;;;;;;;;;;5228327;27;20577;-82
2024/04/15 16:31:52;;;;;;;7.20;2.53;;;;;;;;;;5259605;27;20487;-84
2024/04/15 16:34:18;;;;;;;9.10;2.30;;;;;;;;;;5265318;27;20468;-85
2024/04/15 16:36:44;;;;;;;6.87;2.03;;;;;;;;;;5246887;27;20472;-83
2024/04/15 16:39:10;;;;;;;10.60;2.40;;;;;;;;;;5261683;27;20476;-82
2024/04/15 16:41:36;;;;;;;13.63;2.53;;;;;;;;;;5252243;27;20524;-78
2024/04/15 16:44:02;;;;;;;3.83;1.70;;;;;;;;;;5251308;27;20479;-81
2024/04/15 16:46:28;;;;;;;4.20;1.80;;;;;;;;;;5253260;27;20464;-78
2024/04/15 16:48:55;;;;;;;4.20;1.47;;;;;;;;;;5261897;27;20464;-80
2024/04/15 16:51:21;;;;;;;6.40;2.47;;;;;;;;;;5261789;27;20523;-80
2024/04/15 16:53:49;;;;;;;4.80;2.00;;;;;;;;;;5272876;27;20460;-80
2024/04/15 16:56:15;;;;;;;9.27;2.13;;;;;;;;;;5269203;27;20462;-79
2024/04/15 16:58:41;;;;;;;5.80;1.80;;;;;;;;;;5269681;27;20460;-77
2024/04/15 17:01:07;;;;;;;7.83;2.00;;;;;;;;;;5273712;27;20471;-79
2024/04/15 17:03:33;;;;;;;7.47;1.93;;;;;;;;;;5264763;27;20654;-79
2024/04/15 17:05:59;;;;;;;8.00;1.77;;;;;;;;;;5274348;27;20456;-77
2024/04/15 17:08:25;;;;;;;4.30;1.80;;;;;;;;;;5261201;27;20522;-78
2024/04/15 17:10:51;;;;;;;8.30;2.00;;;;;;;;;;5260890;27;20542;-78
2024/04/15 17:13:17;;;;;;;9.73;1.80;;;;;;;;;;5278099;21;20479;-74
2024/04/15 17:15:43;;;;;;;11.13;2.40;;;;;;;;;;5312837;26;21022;-74
2024/04/15 17:18:11;;;;;;;17.50;2.60;;;;;;;;;;5308988;26;20528;-76
2024/04/15 17:20:37;;;;;;;5.80;1.77;;;;;;;;;;5310287;26;20536;-75
2024/04/15 17:23:03;;;;;;;8.37;1.90;;;;;;;;;;5309959;26;20549;-75
2024/04/15 17:25:29;;;;;;;4.30;1.60;;;;;;;;;;5299259;27;20810;-75
2024/04/15 17:27:55;;;;;;;10.03;1.73;;;;;;;;;;5297038;27;20532;-76
2024/04/15 17:30:21;;;;;;;6.50;1.93;;;;;;;;;;5309959;27;20453;-75
2024/04/15 17:32:46;;;;;;;12.20;2.23;;;;;;;;;;5279707;27;20991;-75
2024/04/15 17:35:12;;;;;;;5.90;1.63;;;;;;;;;;5310042;27;20573;-76
2024/04/15 17:37:40;;;;;;;6.37;1.80;;;;;;;;;;5310187;27;20509;-76
2024/04/15 17:40:07;;;;;;;4.93;2.30;;;;;;;;;;5297609;27;20461;-75
2024/04/15 17:42:33;;;;;;;7.30;1.73;;;;;;;;;;5303156;27;20477;-76
2024/04/15 17:44:58;;;;;;;5.30;1.70;;;;;;;;;;5307684;27;20514;-75
2024/04/15 17:47:24;;;;;;;7.33;2.00;;;;;;;;;;5307009;27;20460;-76
2024/04/15 17:49:51;;;;;;;5.40;1.70;;;;;;;;;;5309615;27;20481;-75
2024/04/15 17:52:18;;;;;;;9.77;1.97;;;;;;;;;;5305677;27;20616;-76
2024/04/15 17:54:45;;;;;;;5.77;2.03;;;;;;;;;;5270747;27;20474;-76
2024/04/15 17:57:11;;;;;;;5.60;1.50;;;;;;;;;;5306008;27;20541;-74
2024/04/15 17:59:37;;;;;;;6.00;2.23;;;;;;;;;;5309130;27;20465;-75
2024/04/15 18:02:04;;;;;;;4.30;1.90;;;;;;;;;;5306829;27;20558;-75
2024/04/15 18:04:30;;;;;;;5.03;1.50;;;;;;;;;;5295941;27;20482;-74
2024/04/15 18:06:57;;;;;;;6.40;1.30;;;;;;;;;;5291857;27;20470;-76
2024/04/15 18:09:23;;;;;;;8.00;2.13;;;;;;;;;;5308278;27;20588;-76
2024/04/15 18:11:49;;;;;;;10.40;2.40;;;;;;;;;;5307205;27;20484;-75
2024/04/15 18:14:15;;;;;;;4.87;2.13;;;;;;;;;;5307994;27;20481;-74
2024/04/15 18:16:41;;;;;;;3.97;1.30;;;;;;;;;;5306251;27;20561;-74
2024/04/15 18:19:09;;;;;;;7.20;1.90;;;;;;;;;;5305219;27;20855;-74
2024/04/15 18:21:35;;;;;;;4.33;1.97;;;;;;;;;;5299510;27;20473;-74
2024/04/15 18:24:00;;;;;;;2.30;1.20;;;;;;;;;;5299620;27;20803;-74
2024/04/15 18:26:26;;;;;;;24.33;1.73;;;;;;;;;;5294812;27;20624;-74
2024/04/15 18:28:53;;;;;;;8.80;1.87;;;;;;;;;;5304359;27;20468;-76
2024/04/15 18:31:19;;;;;;;5.87;2.00;;;;;;;;;;5296747;27;20544;-75
2024/04/15 18:33:45;;;;;;;6.20;1.80;;;;;;;;;;5265403;27;20546;-76
2024/04/15 18:36:12;;;;;;;4.00;1.50;;;;;;;;;;5300544;26;20471;-76
2024/04/15 18:38:38;;;;;;;3.10;1.30;;;;;;;;;;5320097;26;20465;-76
2024/04/15 18:41:04;;;;;;;6.30;1.53;;;;;;;;;;5304902;27;20480;-75
2024/04/15 18:43:30;;;;;;;8.87;3.20;;;;;;;;;;5282890;27;20518;-74
2024/04/15 18:45:57;;;;;;;4.30;1.70;;;;;;;;;;5309829;27;20525;-74
2024/04/15 18:48:23;;;;;;;6.30;2.03;;;;;;;;;;5307982;27;20526;-73
2024/04/15 18:50:49;;;;;;;2.83;1.40;;;;;;;;;;5304311;27;20767;-73
2024/04/15 18:53:15;;;;;;;6.43;2.20;;;;;;;;;;5305091;27;20536;-76
2024/04/15 18:55:40;;;;;;;4.40;1.13;;;;;;;;;;5311859;26;20992;-75
2024/04/15 18:58:08;;;;;;;3.60;1.47;;;;;;;;;;5305418;27;21182;-75
2024/04/15 19:00:34;;;;;;;14.03;2.17;;;;;;;;;;5282863;27;20569;-75
2024/04/15 19:03:00;;;;;;;14.17;1.70;;;;;;;;;;5296319;27;20458;-75
2024/04/15 19:05:26;;;;;;;8.00;1.53;;;;;;;;;;5290900;26;20470;-75
2024/04/15 19:07:52;;;;;;;4.83;1.33;;;;;;;;;;5276619;27;20506;-74
2024/04/15 19:10:18;;;;;;;3.27;1.50;;;;;;;;;;5281211;27;20438;-75
2024/04/15 19:12:44;;;;;;;6.70;1.10;;;;;;;;;;5308145;27;20695;-74
2024/04/15 19:15:10;;;;;;;9.30;1.77;;;;;;;;;;5289457;27;20465;-75
2024/04/15 19:17:36;;;;;;;12.23;1.87;;;;;;;;;;5302672;27;20822;-74
2024/04/15 19:20:03;;;;;;;8.23;1.53;;;;;;;;;;5278687;27;21049;-77
2024/04/15 19:22:29;;;;;;;5.10;1.70;;;;;;;;;;5310368;27;21071;-77
2024/04/15 19:24:55;;;;;;;7.47;1.93;;;;;;;;;;5307215;27;20464;-76
2024/04/15 19:27:21;;;;;;;2.80;1.53;;;;;;;;;;5336553;26;20586;-76
2024/04/15 19:29:47;;;;;;;3.13;0.97;;;;;;;;;;5344831;26;20446;-76
2024/04/15 19:32:13;;;;;;;8.33;1.23;;;;;;;;;;5280534;27;20534;-73
2024/04/15 19:34:39;;;;;;;3.70;0.90;;;;;;;;;;5276267;27;20913;-75
2024/04/15 19:37:05;;;;;;;0.93;0.90;;;;;;;;;;5308702;27;20460;-75